sensor_id;sensor_type;location;lat;lon;timestamp;pressure;altitude;pressure_sealevel;temperature;humidity
48424;BME280;34232;42.502;26.014;2023-01-26T00:00:49;100981.19;;;4.50;77.77
48424;BME280;34232;42.502;26.014;2023-01-26T00:03:14;100982.34;;;4.43;78.56
48424;BME280;34232;42.502;26.014;2023-01-26T00:05:40;100977.78;;;4.48;78.52
48424;BME280;34232;42.502;26.014;2023-01-26T00:08:06;100968.72;;;4.56;77.76
48424;BME280;34232;42.502;26.014;2023-01-26T00:10:34;100973.91;;;4.56;77.03
48424;BME280;34232;42.502;26.014;2023-01-26T00:13:03;100963.19;;;4.44;77.88
48424;BME280;34232;42.502;26.014;2023-01-26T00:15:31;100961.09;;;4.52;77.36
48424;BME280;34232;42.502;26.014;2023-01-26T00:17:56;100965.13;;;4.59;76.64
48424;BME280;34232;42.502;26.014;2023-01-26T00:20:22;100962.25;;;4.65;76.30
48424;BME280;34232;42.502;26.014;2023-01-26T00:22:47;100960.31;;;4.70;76.35
48424;BME280;34232;42.502;26.014;2023-01-26T00:25:13;100961.97;;;4.71;75.60
48424;BME280;34232;42.502;26.014;2023-01-26T00:27:38;100958.63;;;4.69;75.50
48424;BME280;34232;42.502;26.014;2023-01-26T00:30:04;100947.66;;;4.61;76.09
48424;BME280;34232;42.502;26.014;2023-01-26T00:32:29;100951.06;;;4.63;76.30
48424;BME280;34232;42.502;26.014;2023-01-26T00:34:57;100953.53;;;4.66;76.42
48424;BME280;34232;42.502;26.014;2023-01-26T00:37:22;100946.63;;;4.65;76.25
48424;BME280;34232;42.502;26.014;2023-01-26T00:39:48;100949.88;;;4.50;76.84
48424;BME280;34232;42.502;26.014;2023-01-26T00:42:13;100952.81;;;4.22;77.36
48424;BME280;34232;42.502;26.014;2023-01-26T00:44:41;100945.81;;;4.02;77.80
48424;BME280;34232;42.502;26.014;2023-01-26T00:47:08;100956.72;;;3.90;78.63
48424;BME280;34232;42.502;26.014;2023-01-26T00:49:34;100952.00;;;3.78;78.43
48424;BME280;34232;42.502;26.014;2023-01-26T00:52:00;100952.50;;;3.66;78.90
48424;BME280;34232;42.502;26.014;2023-01-26T00:54:26;100953.00;;;3.54;80.73
48424;BME280;34232;42.502;26.014;2023-01-26T00:56:52;100938.88;;;3.37;81.15
48424;BME280;34232;42.502;26.014;2023-01-26T00:59:18;100944.41;;;3.51;81.17
48424;BME280;34232;42.502;26.014;2023-01-26T01:01:44;100940.63;;;3.59;80.52
48424;BME280;34232;42.502;26.014;2023-01-26T01:04:09;100941.25;;;3.65;80.09
48424;BME280;34232;42.502;26.014;2023-01-26T01:06:35;100926.34;;;3.69;80.35
48424;BME280;34232;42.502;26.014;2023-01-26T01:09:00;100942.88;;;3.68;80.49
48424;BME280;34232;42.502;26.014;2023-01-26T01:11:25;100937.38;;;3.54;81.53
48424;BME280;34232;42.502;26.014;2023-01-26T01:13:53;100921.09;;;3.48;81.96
48424;BME280;34232;42.502;26.014;2023-01-26T01:16:19;100926.97;;;3.54;81.77
48424;BME280;34232;42.502;26.014;2023-01-26T01:18:45;100923.69;;;3.48;81.25
48424;BME280;34232;42.502;26.014;2023-01-26T01:21:13;100923.81;;;3.67;80.87
48424;BME280;34232;42.502;26.014;2023-01-26T01:23:38;100915.81;;;3.72;80.24
48424;BME280;34232;42.502;26.014;2023-01-26T01:26:04;100925.44;;;3.70;79.17
48424;BME280;34232;42.502;26.014;2023-01-26T01:28:31;100921.03;;;3.72;78.68
48424;BME280;34232;42.502;26.014;2023-01-26T01:30:56;100914.13;;;3.71;79.10
48424;BME280;34232;42.502;26.014;2023-01-26T01:33:22;100910.91;;;3.64;78.90
48424;BME280;34232;42.502;26.014;2023-01-26T01:35:59;100902.25;;;3.85;79.20
48424;BME280;34232;42.502;26.014;2023-01-26T01:38:25;100910.28;;;3.79;78.46
48424;BME280;34232;42.502;26.014;2023-01-26T01:40:51;100896.13;;;3.65;78.33
48424;BME280;34232;42.502;26.014;2023-01-26T01:43:17;100888.72;;;3.76;77.89
48424;BME280;34232;42.502;26.014;2023-01-26T01:45:45;100888.88;;;3.93;77.71
48424;BME280;34232;42.502;26.014;2023-01-26T01:48:21;100889.16;;;4.07;77.80
48424;BME280;34232;42.502;26.014;2023-01-26T01:50:48;100896.59;;;4.16;77.02
48424;BME280;34232;42.502;26.014;2023-01-26T01:53:19;100887.94;;;4.16;77.20
48424;BME280;34232;42.502;26.014;2023-01-26T01:55:53;100880.84;;;4.19;77.02
48424;BME280;34232;42.502;26.014;2023-01-26T01:58:21;100892.44;;;4.33;76.68
48424;BME280;34232;42.502;26.014;2023-01-26T02:00:46;100880.44;;;4.29;75.54
48424;BME280;34232;42.502;26.014;2023-01-26T02:03:12;100887.09;;;4.36;75.49
48424;BME280;34232;42.502;26.014;2023-01-26T02:08:13;100890.31;;;4.41;74.65
48424;BME280;34232;42.502;26.014;2023-01-26T02:10:42;100889.22;;;4.46;74.24
48424;BME280;34232;42.502;26.014;2023-01-26T02:13:08;100887.31;;;4.50;74.48
48424;BME280;34232;42.502;26.014;2023-01-26T02:15:33;100881.06;;;4.54;74.65
48424;BME280;34232;42.502;26.014;2023-01-26T02:18:01;100887.03;;;4.56;74.48
48424;BME280;34232;42.502;26.014;2023-01-26T02:20:33;100878.25;;;4.58;74.84
48424;BME280;34232;42.502;26.014;2023-01-26T02:28:24;100872.03;;;4.61;77.25
48424;BME280;34232;42.502;26.014;2023-01-26T02:30:49;100875.44;;;4.63;77.60
48424;BME280;34232;42.502;26.014;2023-01-26T02:33:20;100884.28;;;4.59;77.83
48424;BME280;34232;42.502;26.014;2023-01-26T02:35:46;100879.22;;;4.56;77.97
48424;BME280;34232;42.502;26.014;2023-01-26T02:38:12;100877.53;;;4.55;78.29
48424;BME280;34232;42.502;26.014;2023-01-26T02:40:53;100875.06;;;4.52;78.24
48424;BME280;34232;42.502;26.014;2023-01-26T02:43:20;100874.84;;;4.56;78.10
48424;BME280;34232;42.502;26.014;2023-01-26T02:45:46;100879.22;;;4.56;77.99
48424;BME280;34232;42.502;26.014;2023-01-26T02:48:11;100879.75;;;4.44;78.54
48424;BME280;34232;42.502;26.014;2023-01-26T02:50:37;100879.38;;;4.53;78.78
48424;BME280;34232;42.502;26.014;2023-01-26T02:53:02;100873.25;;;4.54;78.57
48424;BME280;34232;42.502;26.014;2023-01-26T02:55:28;100872.31;;;4.55;78.99
48424;BME280;34232;42.502;26.014;2023-01-26T03:00:31;100876.84;;;4.51;79.40
48424;BME280;34232;42.502;26.014;2023-01-26T03:03:00;100875.97;;;4.51;79.70
48424;BME280;34232;42.502;26.014;2023-01-26T03:05:27;100874.28;;;4.50;79.54
48424;BME280;34232;42.502;26.014;2023-01-26T03:07:53;100869.22;;;4.47;79.73
48424;BME280;34232;42.502;26.014;2023-01-26T03:10:18;100858.13;;;4.42;79.70
48424;BME280;34232;42.502;26.014;2023-01-26T03:12:45;100861.50;;;4.44;79.94
48424;BME280;34232;42.502;26.014;2023-01-26T03:15:10;100858.72;;;4.48;79.68
48424;BME280;34232;42.502;26.014;2023-01-26T03:18:05;100844.06;;;4.46;79.99
48424;BME280;34232;42.502;26.014;2023-01-26T03:20:49;100851.03;;;4.45;79.92
48424;BME280;34232;42.502;26.014;2023-01-26T03:23:33;100853.44;;;4.50;80.38
48424;BME280;34232;42.502;26.014;2023-01-26T03:26:17;100845.47;;;4.53;79.96
48424;BME280;34232;42.502;26.014;2023-01-26T03:29:01;100829.19;;;4.48;79.73
48424;BME280;34232;42.502;26.014;2023-01-26T03:31:26;100835.97;;;4.52;80.15
48424;BME280;34232;42.502;26.014;2023-01-26T03:33:52;100833.38;;;4.52;80.40
48424;BME280;34232;42.502;26.014;2023-01-26T03:36:17;100827.22;;;4.53;80.09
48424;BME280;34232;42.502;26.014;2023-01-26T03:38:43;100818.75;;;4.48;80.17
48424;BME280;34232;42.502;26.014;2023-01-26T03:41:08;100832.28;;;4.56;80.17
48424;BME280;34232;42.502;26.014;2023-01-26T03:43:52;100833.44;;;4.50;80.62
48424;BME280;34232;42.502;26.014;2023-01-26T03:46:36;100819.03;;;4.42;81.16
48424;BME280;34232;42.502;26.014;2023-01-26T03:49:20;100830.88;;;4.49;81.48
48424;BME280;34232;42.502;26.014;2023-01-26T03:52:04;100818.63;;;4.51;81.37
48424;BME280;34232;42.502;26.014;2023-01-26T03:54:48;100820.47;;;4.49;81.66
48424;BME280;34232;42.502;26.014;2023-01-26T03:57:31;100812.72;;;4.47;81.64
48424;BME280;34232;42.502;26.014;2023-01-26T03:59:57;100819.34;;;4.54;81.16
48424;BME280;34232;42.502;26.014;2023-01-26T04:02:22;100820.16;;;4.55;80.99
48424;BME280;34232;42.502;26.014;2023-01-26T04:05:07;100813.28;;;4.54;81.35
48424;BME280;34232;42.502;26.014;2023-01-26T04:07:51;100812.63;;;4.49;80.89
48424;BME280;34232;42.502;26.014;2023-01-26T04:10:35;100810.03;;;4.49;81.37
48424;BME280;34232;42.502;26.014;2023-01-26T04:13:00;100804.81;;;4.49;81.56
48424;BME280;34232;42.502;26.014;2023-01-26T04:15:46;100801.56;;;4.44;82.13
48424;BME280;34232;42.502;26.014;2023-01-26T04:18:31;100791.28;;;4.41;82.44
48424;BME280;34232;42.502;26.014;2023-01-26T04:21:14;100801.56;;;4.44;82.11
48424;BME280;34232;42.502;26.014;2023-01-26T04:23:53;100803.97;;;4.48;82.20
48424;BME280;34232;42.502;26.014;2023-01-26T04:26:30;100804.81;;;4.49;82.38
48424;BME280;34232;42.502;26.014;2023-01-26T04:29:03;100804.94;;;4.46;81.95
48424;BME280;34232;42.502;26.014;2023-01-26T04:31:29;100794.38;;;4.49;81.98
48424;BME280;34232;42.502;26.014;2023-01-26T04:33:55;100789.19;;;4.49;81.95
48424;BME280;34232;42.502;26.014;2023-01-26T04:36:20;100758.47;;;4.37;81.75
48424;BME280;34232;42.502;26.014;2023-01-26T04:38:45;100778.75;;;4.49;81.22
48424;BME280;34232;42.502;26.014;2023-01-26T04:41:11;100778.69;;;4.50;80.92
48424;BME280;34232;42.502;26.014;2023-01-26T04:43:36;100760.06;;;4.39;80.98
48424;BME280;34232;42.502;26.014;2023-01-26T04:46:05;100765.91;;;4.44;81.17
48424;BME280;34232;42.502;26.014;2023-01-26T04:48:31;100761.56;;;4.45;81.10
48424;BME280;34232;42.502;26.014;2023-01-26T04:50:59;100748.59;;;4.43;81.67
48424;BME280;34232;42.502;26.014;2023-01-26T04:53:25;100741.25;;;4.33;82.21
48424;BME280;34232;42.502;26.014;2023-01-26T04:55:51;100746.47;;;4.33;82.43
48424;BME280;34232;42.502;26.014;2023-01-26T04:58:16;100732.53;;;4.34;82.63
48424;BME280;34232;42.502;26.014;2023-01-26T05:00:42;100724.66;;;4.35;82.49
48424;BME280;34232;42.502;26.014;2023-01-26T05:03:07;100720.56;;;4.30;81.97
48424;BME280;34232;42.502;26.014;2023-01-26T05:05:37;100717.09;;;4.29;81.42
48424;BME280;34232;42.502;26.014;2023-01-26T05:08:03;100720.56;;;4.30;80.87
48424;BME280;34232;42.502;26.014;2023-01-26T05:10:29;100733.31;;;4.36;80.55
48424;BME280;34232;42.502;26.014;2023-01-26T05:12:54;100723.22;;;4.28;80.64
48424;BME280;34232;42.502;26.014;2023-01-26T05:15:20;100714.75;;;4.23;81.10
48424;BME280;34232;42.502;26.014;2023-01-26T05:17:45;100714.63;;;4.26;81.24
48424;BME280;34232;42.502;26.014;2023-01-26T05:20:11;100722.38;;;4.28;82.05
48424;BME280;34232;42.502;26.014;2023-01-26T05:22:36;100717.94;;;4.30;81.23
48424;BME280;34232;42.502;26.014;2023-01-26T05:25:02;100717.03;;;4.31;81.29
48424;BME280;34232;42.502;26.014;2023-01-26T05:27:27;100707.44;;;4.31;81.67
48424;BME280;34232;42.502;26.014;2023-01-26T05:29:53;100703.22;;;4.29;81.26
48424;BME280;34232;42.502;26.014;2023-01-26T05:32:27;100712.41;;;4.37;80.67
48424;BME280;34232;42.502;26.014;2023-01-26T05:34:52;100711.97;;;4.28;80.29
48424;BME280;34232;42.502;26.014;2023-01-26T05:37:18;100686.66;;;4.11;80.38
48424;BME280;34232;42.502;26.014;2023-01-26T05:39:43;100713.78;;;4.26;80.42
48424;BME280;34232;42.502;26.014;2023-01-26T05:42:12;100713.09;;;4.22;81.03
48424;BME280;34232;42.502;26.014;2023-01-26T05:44:38;100705.75;;;4.11;80.69
48424;BME280;34232;42.502;26.014;2023-01-26T05:47:04;100717.84;;;3.94;81.15
48424;BME280;34232;42.502;26.014;2023-01-26T05:49:29;100727.16;;;3.99;81.50
48424;BME280;34232;42.502;26.014;2023-01-26T05:51:55;100734.19;;;3.97;81.35
48424;BME280;34232;42.502;26.014;2023-01-26T05:54:21;100722.56;;;3.85;81.54
48424;BME280;34232;42.502;26.014;2023-01-26T05:56:46;100728.38;;;3.91;81.93
48424;BME280;34232;42.502;26.014;2023-01-26T05:59:12;100727.63;;;3.89;81.87
48424;BME280;34232;42.502;26.014;2023-01-26T06:01:37;100715.97;;;3.77;82.35
48424;BME280;34232;42.502;26.014;2023-01-26T06:04:03;100731.72;;;3.74;82.70
48424;BME280;34232;42.502;26.014;2023-01-26T06:06:29;100715.59;;;3.66;83.34
48424;BME280;34232;42.502;26.014;2023-01-26T06:08:54;100719.38;;;3.59;84.18
48424;BME280;34232;42.502;26.014;2023-01-26T06:11:20;100716.50;;;3.65;84.33
48424;BME280;34232;42.502;26.014;2023-01-26T06:13:45;100714.44;;;3.73;84.07
48424;BME280;34232;42.502;26.014;2023-01-26T06:16:10;100710.78;;;3.77;83.44
48424;BME280;34232;42.502;26.014;2023-01-26T06:18:36;100711.34;;;3.83;83.19
48424;BME280;34232;42.502;26.014;2023-01-26T06:21:01;100706.94;;;3.85;82.90
48424;BME280;34232;42.502;26.014;2023-01-26T06:23:27;100704.94;;;3.91;82.76
48424;BME280;34232;42.502;26.014;2023-01-26T06:25:52;100711.66;;;3.96;82.50
48424;BME280;34232;42.502;26.014;2023-01-26T06:28:17;100704.50;;;4.01;82.50
48424;BME280;34232;42.502;26.014;2023-01-26T06:30:46;100702.78;;;4.00;82.61
48424;BME280;34232;42.502;26.014;2023-01-26T06:33:11;100704.19;;;4.07;82.23
48424;BME280;34232;42.502;26.014;2023-01-26T06:35:36;100712.78;;;4.09;81.32
48424;BME280;34232;42.502;26.014;2023-01-26T06:38:02;100717.09;;;4.10;81.15
48424;BME280;34232;42.502;26.014;2023-01-26T06:40:28;100724.06;;;4.10;81.63
48424;BME280;34232;42.502;26.014;2023-01-26T06:42:53;100726.88;;;4.05;81.06
48424;BME280;34232;42.502;26.014;2023-01-26T06:45:19;100715.81;;;4.00;81.15
48424;BME280;34232;42.502;26.014;2023-01-26T06:47:49;100710.53;;;4.02;81.30
48424;BME280;34232;42.502;26.014;2023-01-26T06:50:20;100712.78;;;4.09;81.99
48424;BME280;34232;42.502;26.014;2023-01-26T06:52:50;100694.28;;;4.15;82.00
48424;BME280;34232;42.502;26.014;2023-01-26T06:55:35;100695.47;;;4.27;81.94
48424;BME280;34232;42.502;26.014;2023-01-26T06:58:01;100692.66;;;4.32;81.53
48424;BME280;34232;42.502;26.014;2023-01-26T07:00:27;100692.28;;;4.39;81.56
48424;BME280;34232;42.502;26.014;2023-01-26T07:02:52;100699.00;;;4.45;80.89
48424;BME280;34232;42.502;26.014;2023-01-26T07:05:18;100708.88;;;4.38;79.97
48424;BME280;34232;42.502;26.014;2023-01-26T07:07:43;100713.06;;;4.41;80.37
48424;BME280;34232;42.502;26.014;2023-01-26T07:10:09;100709.56;;;4.42;80.98
48424;BME280;34232;42.502;26.014;2023-01-26T07:12:42;100704.91;;;4.48;81.10
48424;BME280;34232;42.502;26.014;2023-01-26T07:15:11;100697.38;;;4.42;80.66
48424;BME280;34232;42.502;26.014;2023-01-26T07:17:38;100703.94;;;4.51;80.52
48424;BME280;34232;42.502;26.014;2023-01-26T07:20:05;100703.63;;;4.57;80.63
48424;BME280;34232;42.502;26.014;2023-01-26T07:22:30;100706.09;;;4.60;80.78
48424;BME280;34232;42.502;26.014;2023-01-26T07:24:56;100712.78;;;4.66;80.98
48424;BME280;34232;42.502;26.014;2023-01-26T07:27:21;100702.56;;;4.61;81.36
48424;BME280;34232;42.502;26.014;2023-01-26T07:29:47;100686.16;;;4.59;81.23
48424;BME280;34232;42.502;26.014;2023-01-26T07:32:12;100698.59;;;4.71;80.98
48424;BME280;34232;42.502;26.014;2023-01-26T07:34:37;100680.59;;;4.67;80.77
48424;BME280;34232;42.502;26.014;2023-01-26T07:37:03;100700.16;;;4.75;81.17
48424;BME280;34232;42.502;26.014;2023-01-26T07:39:29;100682.94;;;4.71;80.90
48424;BME280;34232;42.502;26.014;2023-01-26T07:41:55;100695.56;;;4.80;81.23
48424;BME280;34232;42.502;26.014;2023-01-26T07:44:20;100690.19;;;4.83;81.17
48424;BME280;34232;42.502;26.014;2023-01-26T07:46:45;100690.72;;;4.90;80.79
48424;BME280;34232;42.502;26.014;2023-01-26T07:49:11;100693.34;;;4.90;80.34
48424;BME280;34232;42.502;26.014;2023-01-26T07:51:37;100681.22;;;4.89;80.47
48424;BME280;34232;42.502;26.014;2023-01-26T07:54:04;100682.91;;;4.90;80.23
48424;BME280;34232;42.502;26.014;2023-01-26T07:56:29;100669.63;;;4.77;79.98
48424;BME280;34232;42.502;26.014;2023-01-26T07:58:55;100675.31;;;4.85;79.53
48424;BME280;34232;42.502;26.014;2023-01-26T08:01:21;100671.69;;;4.88;79.91
48424;BME280;34232;42.502;26.014;2023-01-26T08:03:49;100658.84;;;4.85;79.91
48424;BME280;34232;42.502;26.014;2023-01-26T08:06:15;100650.84;;;4.88;79.17
48424;BME280;34232;42.502;26.014;2023-01-26T08:08:41;100638.63;;;4.88;79.67
48424;BME280;34232;42.502;26.014;2023-01-26T08:11:08;100622.06;;;4.89;79.45
48424;BME280;34232;42.502;26.014;2023-01-26T08:13:34;100630.81;;;4.88;80.04
48424;BME280;34232;42.502;26.014;2023-01-26T08:16:01;100613.94;;;4.78;80.88
48424;BME280;34232;42.502;26.014;2023-01-26T08:18:27;100631.00;;;4.85;80.52
48424;BME280;34232;42.502;26.014;2023-01-26T08:20:53;100625.16;;;4.80;80.21
48424;BME280;34232;42.502;26.014;2023-01-26T08:23:19;100634.50;;;4.84;80.73
48424;BME280;34232;42.502;26.014;2023-01-26T08:25:45;100628.97;;;4.90;81.08
48424;BME280;34232;42.502;26.014;2023-01-26T08:28:11;100625.44;;;4.91;80.63
48424;BME280;34232;42.502;26.014;2023-01-26T08:30:36;100625.16;;;4.98;80.41
48424;BME280;34232;42.502;26.014;2023-01-26T08:33:02;100629.44;;;4.99;80.07
48424;BME280;34232;42.502;26.014;2023-01-26T08:35:30;100631.38;;;4.95;80.15
48424;BME280;34232;42.502;26.014;2023-01-26T08:37:55;100633.41;;;4.88;79.65
48424;BME280;34232;42.502;26.014;2023-01-26T08:40:22;100638.19;;;4.80;79.67
48424;BME280;34232;42.502;26.014;2023-01-26T08:42:49;100636.50;;;4.79;79.23
48424;BME280;34232;42.502;26.014;2023-01-26T08:45:15;100642.31;;;4.67;79.47
48424;BME280;34232;42.502;26.014;2023-01-26T08:47:41;100642.81;;;4.56;79.03
48424;BME280;34232;42.502;26.014;2023-01-26T08:50:07;100641.38;;;4.51;79.62
48424;BME280;34232;42.502;26.014;2023-01-26T08:52:32;100645.03;;;4.47;79.78
48424;BME280;34232;42.502;26.014;2023-01-26T08:54:58;100640.41;;;4.35;80.86
48424;BME280;34232;42.502;26.014;2023-01-26T08:57:24;100612.41;;;4.21;81.25
48424;BME280;34232;42.502;26.014;2023-01-26T08:59:50;100635.97;;;4.37;81.65
48424;BME280;34232;42.502;26.014;2023-01-26T09:02:15;100627.44;;;4.33;81.19
48424;BME280;34232;42.502;26.014;2023-01-26T09:04:41;100629.34;;;4.30;82.12
48424;BME280;34232;42.502;26.014;2023-01-26T09:07:06;100621.06;;;4.39;83.62
48424;BME280;34232;42.502;26.014;2023-01-26T09:09:31;100621.78;;;4.42;82.71
48424;BME280;34232;42.502;26.014;2023-01-26T09:11:57;100628.53;;;4.46;83.24
48424;BME280;34232;42.502;26.014;2023-01-26T09:14:22;100610.09;;;4.51;82.98
48424;BME280;34232;42.502;26.014;2023-01-26T09:16:48;100605.47;;;4.56;83.10
48424;BME280;34232;42.502;26.014;2023-01-26T09:19:14;100611.94;;;4.66;83.58
48424;BME280;34232;42.502;26.014;2023-01-26T09:21:39;100602.22;;;4.70;83.30
48424;BME280;34232;42.502;26.014;2023-01-26T09:24:05;100603.81;;;4.72;82.60
48424;BME280;34232;42.502;26.014;2023-01-26T09:26:30;100606.59;;;4.69;81.77
48424;BME280;34232;42.502;26.014;2023-01-26T09:28:56;100588.34;;;4.69;82.19
48424;BME280;34232;42.502;26.014;2023-01-26T09:31:22;100583.78;;;4.73;83.90
48424;BME280;34232;42.502;26.014;2023-01-26T09:33:48;100566.28;;;4.75;83.04
48424;BME280;34232;42.502;26.014;2023-01-26T09:36:14;100561.63;;;4.81;83.15
48424;BME280;34232;42.502;26.014;2023-01-26T09:38:40;100544.28;;;4.80;82.94
48424;BME280;34232;42.502;26.014;2023-01-26T09:54:03;100498.59;;;5.06;82.38
48424;BME280;34232;42.502;26.014;2023-01-26T09:56:30;100509.06;;;5.22;82.85
48424;BME280;34232;42.502;26.014;2023-01-26T10:01:49;100496.31;;;5.33;81.30
48424;BME280;34232;42.502;26.014;2023-01-26T10:04:35;100474.66;;;5.31;81.17
48424;BME280;34232;42.502;26.014;2023-01-26T10:07:09;100475.34;;;5.35;81.06
48424;BME280;34232;42.502;26.014;2023-01-26T10:09:36;100461.78;;;5.28;80.24
48424;BME280;34232;42.502;26.014;2023-01-26T10:15:28;100476.09;;;5.52;80.69
48424;BME280;34232;42.502;26.014;2023-01-26T10:17:57;100461.19;;;5.54;80.53
48424;BME280;34232;42.502;26.014;2023-01-26T10:20:29;100452.41;;;5.55;80.21
48424;BME280;34232;42.502;26.014;2023-01-26T10:25:44;100445.97;;;5.47;80.87
48424;BME280;34232;42.502;26.014;2023-01-26T10:28:38;100439.19;;;5.58;81.67
48424;BME280;34232;42.502;26.014;2023-01-26T10:31:13;100436.34;;;5.63;82.39
48424;BME280;34232;42.502;26.014;2023-01-26T10:33:48;100419.06;;;5.60;82.89
48424;BME280;34232;42.502;26.014;2023-01-26T10:36:15;100422.38;;;5.64;82.85
48424;BME280;34232;42.502;26.014;2023-01-26T10:38:42;100414.94;;;5.56;82.10
48424;BME280;34232;42.502;26.014;2023-01-26T10:48:57;100364.19;;;5.76;84.79
48424;BME280;34232;42.502;26.014;2023-01-26T10:51:26;100360.75;;;5.76;84.34
48424;BME280;34232;42.502;26.014;2023-01-26T10:54:22;100350.81;;;5.82;85.57
48424;BME280;34232;42.502;26.014;2023-01-26T10:57:26;100329.41;;;5.76;85.36
48424;BME280;34232;42.502;26.014;2023-01-26T10:59:55;100312.06;;;5.75;85.88
48424;BME280;34232;42.502;26.014;2023-01-26T11:02:24;100310.94;;;5.79;86.03
48424;BME280;34232;42.502;26.014;2023-01-26T11:07:39;100317.19;;;5.76;87.53
48424;BME280;34232;42.502;26.014;2023-01-26T11:10:33;100324.63;;;5.68;88.17
48424;BME280;34232;42.502;26.014;2023-01-26T11:13:15;100322.13;;;5.67;90.63
48424;BME280;34232;42.502;26.014;2023-01-26T11:15:59;100308.13;;;5.68;91.88
48424;BME280;34232;42.502;26.014;2023-01-26T11:18:59;100315.00;;;5.69;92.43
48424;BME280;34232;42.502;26.014;2023-01-26T11:24:39;100307.09;;;5.70;92.00
48424;BME280;34232;42.502;26.014;2023-01-26T11:27:16;100295.09;;;5.82;93.53
48424;BME280;34232;42.502;26.014;2023-01-26T11:38:10;100277.78;;;5.95;94.78
48424;BME280;34232;42.502;26.014;2023-01-26T11:40:49;100269.78;;;5.98;94.76
48424;BME280;34232;42.502;26.014;2023-01-26T11:46:15;100249.81;;;5.97;95.65
48424;BME280;34232;42.502;26.014;2023-01-26T11:57:54;100262.69;;;6.28;93.48
48424;BME280;34232;42.502;26.014;2023-01-26T12:00:36;100249.06;;;6.23;94.08
48424;BME280;34232;42.502;26.014;2023-01-26T12:03:07;100262.28;;;6.35;93.01
48424;BME280;34232;42.502;26.014;2023-01-26T12:05:42;100251.47;;;6.41;93.44
48424;BME280;34232;42.502;26.014;2023-01-26T12:10:50;100243.59;;;6.55;95.02
48424;BME280;34232;42.502;26.014;2023-01-26T12:13:37;100246.31;;;6.53;94.09
48424;BME280;34232;42.502;26.014;2023-01-26T12:16:19;100235.78;;;6.41;94.97
48424;BME280;34232;42.502;26.014;2023-01-26T12:18:54;100242.31;;;6.48;95.23
48424;BME280;34232;42.502;26.014;2023-01-26T12:21:34;100230.38;;;6.44;94.50
48424;BME280;34232;42.502;26.014;2023-01-26T12:24:02;100231.66;;;6.51;95.65
48424;BME280;34232;42.502;26.014;2023-01-26T12:26:32;100235.59;;;6.44;95.35
48424;BME280;34232;42.502;26.014;2023-01-26T12:29:21;100225.84;;;6.60;95.11
48424;BME280;34232;42.502;26.014;2023-01-26T12:32:04;100225.84;;;6.60;94.07
48424;BME280;34232;42.502;26.014;2023-01-26T12:34:33;100221.91;;;6.67;93.88
48424;BME280;34232;42.502;26.014;2023-01-26T12:39:38;100202.47;;;6.71;94.67
48424;BME280;34232;42.502;26.014;2023-01-26T12:44:40;100186.38;;;6.77;94.21
48424;BME280;34232;42.502;26.014;2023-01-26T12:47:40;100187.06;;;6.93;94.50
48424;BME280;34232;42.502;26.014;2023-01-26T12:50:41;100187.59;;;6.98;94.73
48424;BME280;34232;42.502;26.014;2023-01-26T12:53:24;100188.28;;;6.88;94.48
48424;BME280;34232;42.502;26.014;2023-01-26T12:56:12;100193.44;;;6.89;95.22
48424;BME280;34232;42.502;26.014;2023-01-26T12:58:43;100204.94;;;6.87;95.95
48424;BME280;34232;42.502;26.014;2023-01-26T13:01:13;100204.50;;;6.80;95.28
48424;BME280;34232;42.502;26.014;2023-01-26T13:03:43;100202.59;;;6.82;96.00
48424;BME280;34232;42.502;26.014;2023-01-26T13:11:02;100188.84;;;6.93;96.80
48424;BME280;34232;42.502;26.014;2023-01-26T13:18:51;100167.47;;;6.86;97.80
48424;BME280;34232;42.502;26.014;2023-01-26T13:26:49;100171.41;;;7.06;97.56
48424;BME280;34232;42.502;26.014;2023-01-26T13:32:49;100171.41;;;7.06;98.14
48424;BME280;34232;42.502;26.014;2023-01-26T13:34:52;100176.41;;;6.96;98.40
48424;BME280;34232;42.502;26.014;2023-01-26T13:40:21;100168.41;;;6.85;100.00
48424;BME280;34232;42.502;26.014;2023-01-26T13:45:58;100154.78;;;6.80;100.00
48424;BME280;34232;42.502;26.014;2023-01-26T13:51:00;100158.13;;;6.82;100.00
48424;BME280;34232;42.502;26.014;2023-01-26T13:53:40;100157.31;;;6.82;100.00
48424;BME280;34232;42.502;26.014;2023-01-26T13:56:25;100154.16;;;6.77;100.00
48424;BME280;34232;42.502;26.014;2023-01-26T13:58:51;100148.47;;;6.70;100.00
48424;BME280;34232;42.502;26.014;2023-01-26T14:01:18;100147.53;;;6.71;100.00
48424;BME280;34232;42.502;26.014;2023-01-26T14:03:43;100137.25;;;6.68;100.00
48424;BME280;34232;42.502;26.014;2023-01-26T14:06:13;100131.09;;;6.69;100.00
48424;BME280;34232;42.502;26.014;2023-01-26T14:08:44;100120.63;;;6.69;100.00
48424;BME280;34232;42.502;26.014;2023-01-26T14:11:17;100114.38;;;6.72;100.00
48424;BME280;34232;42.502;26.014;2023-01-26T14:13:47;100109.03;;;6.73;100.00
48424;BME280;34232;42.502;26.014;2023-01-26T14:19:17;100082.69;;;6.76;100.00
48424;BME280;34232;42.502;26.014;2023-01-26T14:21:53;100077.34;;;6.78;100.00
48424;BME280;34232;42.502;26.014;2023-01-26T14:24:25;100064.38;;;6.76;100.00
48424;BME280;34232;42.502;26.014;2023-01-26T14:26:55;100045.22;;;6.76;100.00
48424;BME280;34232;42.502;26.014;2023-01-26T14:29:23;100052.88;;;6.79;100.00
48424;BME280;34232;42.502;26.014;2023-01-26T14:31:50;100055.38;;;6.80;100.00
48424;BME280;34232;42.502;26.014;2023-01-26T14:34:25;100047.19;;;6.85;100.00
48424;BME280;34232;42.502;26.014;2023-01-26T14:39:29;100009.53;;;6.62;100.00
48424;BME280;34232;42.502;26.014;2023-01-26T14:41:55;100025.22;;;6.75;100.00
48424;BME280;34232;42.502;26.014;2023-01-26T14:44:21;100018.22;;;6.75;100.00
48424;BME280;34232;42.502;26.014;2023-01-26T14:52:23;100012.69;;;6.80;100.00
48424;BME280;34232;42.502;26.014;2023-01-26T14:55:04;100012.59;;;6.81;100.00